Avataq — CYCX — position and weather

sailwx.info

Track history (hours):
 
Tides and Currents Weather Stations Pressure Air Temp Water Temp Dewpoint Dewpoint Depression Visibility Wind Speed Wind Dir Waves Ship Positions

Avataq

Last reported at 2017-Nov-19 16:59 UTC. Time now 2017-Nov-23 03:19 UTC.
Position N 45°32' W 073°32'.

Length 113 m; draft 6.1 m.

Type: Cargo ship. MMSI: 316013740.

Date/timePositionNaut miles runAvg speedWind from/ knotsBaromVisibWave heightAir tempDewpointWater temp
2017-Nov-19 16:59N 45°32' W 073°32'2 2.9
2017-Nov-19 16:10N 45°30' W 073°31'0 2.5
2017-Nov-19 16:01N 45°29' W 073°31'3 6.0
2017-Nov-19 15:31N 45°26' W 073°30'3 6.1
2017-Nov-19 15:01N 45°24' W 073°34'0 0.6
2017-Nov-19 14:30N 45°24' W 073°34'3 5.3
2017-Nov-19 13:59N 45°24' W 073°38'3 6.2
2017-Nov-19 13:30N 45°25' W 073°42'611.6
2017-Nov-19 13:00N 45°22' W 073°50'510.4
2017-Nov-19 12:31N 45°19' W 073°55'0 0.7
2017-Nov-19 12:01N 45°19' W 073°55'0 1.0
2017-Nov-19 11:31N 45°18' W 073°56'1 2.6
2017-Nov-19 11:00N 45°17' W 073°56'5 9.5
2017-Nov-19 10:30N 45°14' W 074°01'3 0.1
2017-Nov-17 16:15N 45°13' W 074°06'1 0.9
2017-Nov-17 15:38N 45°13' W 074°05'1 7.3
2017-Nov-17 15:30N 45°13' W 074°04'5 9.6
2017-Nov-17 15:00N 45°16' W 073°58'3 6.1
2017-Nov-17 14:30N 45°18' W 073°56'0 0.6
2017-Nov-17 14:00N 45°19' W 073°55'1 1.1
2017-Nov-17 13:31N 45°19' W 073°55'1 1.7
2017-Nov-17 13:00N 45°20' W 073°54'1 1.3
2017-Nov-17 12:30N 45°20' W 073°54'2 4.1
2017-Nov-17 12:00N 45°21' W 073°51'4 7.9
2017-Nov-17 11:30N 45°24' W 073°47'4 7.3
2017-Nov-17 11:00N 45°25' W 073°42'3 6.1
2017-Nov-17 10:30N 45°24' W 073°38'3 5.6
2017-Nov-17 10:01N 45°24' W 073°34'0 0.3
2017-Nov-17 09:30N 45°24' W 073°34'2 4.5
2017-Nov-17 09:00N 45°25' W 073°31'4 7.1
2017-Nov-17 08:31N 45°29' W 073°31'1 1.8
2017-Nov-17 07:52N 45°30' W 073°31'1 2.0
2017-Nov-17 07:29N 45°30' W 073°31'38810.4
2017-Nov-15 18:00N 49°36' W 066°06'12210.2 250 / 151024.510.8 -0.0
2017-Nov-15 06:00N 50°00' W 063°00'54 9.1 280 / 21028.010.8 -1.0
2017-Nov-15 00:00N 49°54' W 061°36'15713.1 030 / 101029.0 5.4 -1.0
2017-Nov-14 12:00N 50°54' W 057°48'8013.3 340 / 151027.5 5.4 -2.0
2017-Nov-14 06:00N 51°42' W 056°06'7212.0 240 / 101022.010.8 -0.0
2017-Nov-14 00:00N 52°48' W 055°18'7111.8 270 / 321020.527.0 -1.0
2017-Nov-13 18:00N 53°54' W 056°00'   230 / 201020.510.8 -2.0
2017-Nov-11 06:00N 59°00' W 062°24'3535589.1 340 / 151010.0 5.4 -0.0
2017-Nov-11 00:00N 00°06' W 063°36'3621603.6 350 / 121015.0 1.1 -2.0
2017-Nov-10 18:00N 60°24' W 066°36'23012.8 210 / 101018.010.8 -3.0
2017-Nov-10 00:00N 62°30' W 073°18'25 8.4 240 / 201009.010.8 -0.0
2017-Nov-09 21:00N 62°18' W 074°06'   200 / 151007.010.8 -0.0
Track history (hours):
 
Tides and Currents Weather Stations Pressure Air Temp Water Temp Dewpoint Dewpoint Depression Visibility Wind Speed Wind Dir Waves Ship Positions

Avataq

Last reported at 2017-Nov-19 16:59 UTC. Time now 2017-Nov-23 03:19 UTC.
Position N 45°32' W 073°32'.

Length 113 m; draft 6.1 m.

Type: Cargo ship. MMSI: 316013740.

Date/timePositionNaut miles runAvg speedWind from/ knotsBaromVisibWave heightAir tempDewpointWater temp
2017-Nov-19 16:59N 45°32' W 073°32'2 2.9
2017-Nov-19 16:10N 45°30' W 073°31'0 2.5
2017-Nov-19 16:01N 45°29' W 073°31'3 6.0
2017-Nov-19 15:31N 45°26' W 073°30'3 6.1
2017-Nov-19 15:01N 45°24' W 073°34'0 0.6
2017-Nov-19 14:30N 45°24' W 073°34'3 5.3
2017-Nov-19 13:59N 45°24' W 073°38'3 6.2
2017-Nov-19 13:30N 45°25' W 073°42'611.6
2017-Nov-19 13:00N 45°22' W 073°50'510.4
2017-Nov-19 12:31N 45°19' W 073°55'0 0.7
2017-Nov-19 12:01N 45°19' W 073°55'0 1.0
2017-Nov-19 11:31N 45°18' W 073°56'1 2.6
2017-Nov-19 11:00N 45°17' W 073°56'5 9.5
2017-Nov-19 10:30N 45°14' W 074°01'3 0.1
2017-Nov-17 16:15N 45°13' W 074°06'1 0.9
2017-Nov-17 15:38N 45°13' W 074°05'1 7.3
2017-Nov-17 15:30N 45°13' W 074°04'5 9.6
2017-Nov-17 15:00N 45°16' W 073°58'3 6.1
2017-Nov-17 14:30N 45°18' W 073°56'0 0.6
2017-Nov-17 14:00N 45°19' W 073°55'1 1.1
2017-Nov-17 13:31N 45°19' W 073°55'1 1.7
2017-Nov-17 13:00N 45°20' W 073°54'1 1.3
2017-Nov-17 12:30N 45°20' W 073°54'2 4.1
2017-Nov-17 12:00N 45°21' W 073°51'4 7.9
2017-Nov-17 11:30N 45°24' W 073°47'4 7.3
2017-Nov-17 11:00N 45°25' W 073°42'3 6.1
2017-Nov-17 10:30N 45°24' W 073°38'3 5.6
2017-Nov-17 10:01N 45°24' W 073°34'0 0.3
2017-Nov-17 09:30N 45°24' W 073°34'2 4.5
2017-Nov-17 09:00N 45°25' W 073°31'4 7.1
2017-Nov-17 08:31N 45°29' W 073°31'1 1.8
2017-Nov-17 07:52N 45°30' W 073°31'1 2.0
2017-Nov-17 07:29N 45°30' W 073°31'38810.4
2017-Nov-15 18:00N 49°36' W 066°06'12210.2 250 / 151024.510.8 -0.0
2017-Nov-15 06:00N 50°00' W 063°00'54 9.1 280 / 21028.010.8 -1.0
2017-Nov-15 00:00N 49°54' W 061°36'15713.1 030 / 101029.0 5.4 -1.0
2017-Nov-14 12:00N 50°54' W 057°48'8013.3 340 / 151027.5 5.4 -2.0
2017-Nov-14 06:00N 51°42' W 056°06'7212.0 240 / 101022.010.8 -0.0
2017-Nov-14 00:00N 52°48' W 055°18'7111.8 270 / 321020.527.0 -1.0
2017-Nov-13 18:00N 53°54' W 056°00'   230 / 201020.510.8 -2.0
2017-Nov-11 06:00N 59°00' W 062°24'3535589.1 340 / 151010.0 5.4 -0.0
2017-Nov-11 00:00N 00°06' W 063°36'3621603.6 350 / 121015.0 1.1 -2.0
2017-Nov-10 18:00N 60°24' W 066°36'23012.8 210 / 101018.010.8 -3.0
2017-Nov-10 00:00N 62°30' W 073°18'25 8.4 240 / 201009.010.8 -0.0
2017-Nov-09 21:00N 62°18' W 074°06'   200 / 151007.010.8 -0.0

Dump ship's entire track history